createdAt,value
2019-04-14T00:00:49.467Z,-0.44
2019-04-14T00:03:22.332Z,-0.49
2019-04-14T00:06:00.500Z,-0.42
2019-04-14T00:08:32.707Z,-0.34
2019-04-14T00:11:02.089Z,-0.38
2019-04-14T00:13:32.722Z,-0.28
2019-04-14T00:16:03.126Z,-0.31
2019-04-14T00:18:33.672Z,-0.28
2019-04-14T00:21:04.428Z,-0.23
2019-04-14T00:23:34.760Z,-0.20
2019-04-14T00:26:27.274Z,-0.38
2019-04-14T00:28:58.041Z,-0.43
2019-04-14T00:31:28.677Z,-0.38
2019-04-14T00:34:00.713Z,-0.33
2019-04-14T00:36:35.688Z,-0.40
2019-04-14T00:39:25.119Z,-0.33
2019-04-14T00:42:13.127Z,-0.34
2019-04-14T00:44:45.250Z,-0.40
2019-04-14T00:47:17.978Z,-0.45
2019-04-14T00:49:48.635Z,-0.46
2019-04-14T00:52:18.990Z,-0.51
2019-04-14T00:54:48.470Z,-0.56
2019-04-14T00:57:18.067Z,-0.61
2019-04-14T00:59:48.676Z,-0.68
2019-04-14T01:02:18.926Z,-0.61
2019-04-14T01:04:49.148Z,-0.53
2019-04-14T01:07:19.438Z,-0.63
2019-04-14T01:09:48.977Z,-0.63
2019-04-14T01:12:19.201Z,-0.59
2019-04-14T01:14:49.572Z,-0.60
2019-04-14T01:17:19.905Z,-0.65
2019-04-14T01:19:50.537Z,-0.67
2019-04-14T01:22:20.615Z,-0.78
2019-04-14T01:24:51.051Z,-0.83
2019-04-14T01:27:21.553Z,-0.83
2019-04-14T01:29:51.646Z,-0.74
2019-04-14T01:32:21.924Z,-0.79
2019-04-14T01:34:53.656Z,-0.84
2019-04-14T01:37:24.686Z,-0.82
2019-04-14T01:39:54.575Z,-0.76
2019-04-14T01:42:24.559Z,-0.80
2019-04-14T01:44:54.663Z,-0.92
2019-04-14T01:47:24.913Z,-0.99
2019-04-14T01:49:55.169Z,-1.03
2019-04-14T01:52:27.364Z,-1.08
2019-04-14T01:55:17.936Z,-1.05
2019-04-14T02:00:51.265Z,-0.98
2019-04-14T02:03:21.733Z,-0.97
2019-04-14T02:05:51.756Z,-0.93
2019-04-14T02:08:21.990Z,-0.87
2019-04-14T02:10:52.053Z,-0.93
2019-04-14T02:13:22.548Z,-1.02
2019-04-14T02:15:52.830Z,-1.02
2019-04-14T02:18:22.939Z,-0.99
2019-04-14T02:20:53.488Z,-1.07
2019-04-14T02:23:23.615Z,-1.09
2019-04-14T02:25:54.079Z,-1.07
2019-04-14T02:28:24.272Z,-1.00
2019-04-14T02:31:06.367Z,-0.95
2019-04-14T02:38:55.307Z,-0.86
2019-04-14T02:41:33.670Z,-0.85
2019-04-14T02:43:56.456Z,-0.87
2019-04-14T02:46:34.511Z,-0.84
2019-04-14T02:51:33.776Z,-0.97
2019-04-14T03:01:38.897Z,-0.99
2019-04-14T03:04:05.917Z,-0.97
2019-04-14T03:06:38.523Z,-0.95
2019-04-14T03:09:23.966Z,-1.07
2019-04-14T03:11:40.274Z,-1.08
2019-04-14T03:17:14.606Z,-1.12
2019-04-14T03:19:59.138Z,-1.04
2019-04-14T03:24:53.843Z,-1.07
2019-04-14T03:30:51.674Z,-1.09
2019-04-14T03:33:27.331Z,-1.14
2019-04-14T03:35:58.840Z,-1.21
2019-04-14T03:37:54.448Z,-1.19
2019-04-14T03:40:25.917Z,-1.11
2019-04-14T03:43:05.849Z,-1.15
2019-04-14T03:45:46.809Z,-1.12
2019-04-14T03:48:34.596Z,-1.13
2019-04-14T03:53:21.379Z,-1.13
2019-04-14T03:55:25.078Z,-1.19
2019-04-14T03:57:45.533Z,-1.14
2019-04-14T04:00:15.897Z,-1.17
2019-04-14T04:02:46.610Z,-1.19
2019-04-14T04:05:17.336Z,-1.13
2019-04-14T04:07:47.490Z,-1.06
2019-04-14T04:10:17.989Z,-1.04
2019-04-14T04:12:48.635Z,-0.98
2019-04-14T04:15:19.229Z,-1.06
2019-04-14T04:17:53.797Z,-1.11
2019-04-14T04:20:24.859Z,-1.14
2019-04-14T04:23:12.130Z,-1.15
2019-04-14T04:25:44.334Z,-1.17
2019-04-14T04:28:16.491Z,-1.14
2019-04-14T04:30:49.414Z,-1.19
2019-04-14T04:33:26.433Z,-1.27
2019-04-14T04:35:58.408Z,-1.23
2019-04-14T04:38:29.670Z,-1.27
2019-04-14T04:40:59.440Z,-1.29
2019-04-14T04:43:29.740Z,-1.31
2019-04-14T04:46:00.665Z,-1.30
2019-04-14T04:48:31.196Z,-1.29
2019-04-14T04:51:01.398Z,-1.36
2019-04-14T04:53:30.980Z,-1.37
2019-04-14T04:56:01.572Z,-1.33
2019-04-14T04:58:30.984Z,-1.29
2019-04-14T05:01:01.407Z,-1.30
2019-04-14T05:03:31.807Z,-1.32
2019-04-14T05:06:24.838Z,-1.31
2019-04-14T05:08:56.994Z,-1.18
2019-04-14T05:11:40.403Z,-1.18
2019-04-14T05:14:15.156Z,-1.21
2019-04-14T05:16:44.648Z,-1.05
2019-04-14T05:19:23.789Z,-1.01
2019-04-14T05:21:47.307Z,-0.92
2019-04-14T05:24:17.819Z,-0.70
2019-04-14T05:26:50.575Z,-0.55
2019-04-14T05:29:21.003Z,-0.40
2019-04-14T05:31:51.171Z,-0.40
2019-04-14T05:34:22.156Z,-0.28
2019-04-14T05:36:52.128Z,-0.23
2019-04-14T05:39:22.070Z,-0.08
2019-04-14T05:42:02.553Z,-0.10
2019-04-14T05:44:23.204Z,-0.09
2019-04-14T05:46:53.467Z,0.07
2019-04-14T05:49:31.516Z,0.15
2019-04-14T05:51:54.439Z,0.27
2019-04-14T05:54:23.751Z,0.36
2019-04-14T05:56:53.743Z,0.43
2019-04-14T05:59:24.174Z,0.46
2019-04-14T06:01:54.534Z,0.59
2019-04-14T06:04:24.326Z,0.70
2019-04-14T06:06:53.752Z,0.76
2019-04-14T06:09:24.043Z,0.78
2019-04-14T06:11:54.204Z,0.85
2019-04-14T06:14:23.585Z,0.99
2019-04-14T06:16:52.877Z,1.02
2019-04-14T06:19:22.358Z,1.16
2019-04-14T06:21:51.610Z,1.28
2019-04-14T06:24:21.976Z,1.43
2019-04-14T06:26:51.328Z,1.51
2019-04-14T06:29:21.697Z,1.60
2019-04-14T06:31:52.679Z,1.56
2019-04-14T06:34:26.313Z,1.77
2019-04-14T06:36:57.321Z,1.75
2019-04-14T06:39:28.364Z,1.93
2019-04-14T06:41:57.643Z,2.26
2019-04-14T06:44:27.022Z,2.24
2019-04-14T06:46:56.297Z,2.41
2019-04-14T06:49:25.612Z,2.48
2019-04-14T06:51:54.952Z,2.60
2019-04-14T06:54:24.360Z,2.74
2019-04-14T06:56:53.716Z,2.65
2019-04-14T06:59:23.225Z,2.53
2019-04-14T07:01:52.522Z,2.72
2019-04-14T07:04:21.839Z,2.78
2019-04-14T07:06:51.493Z,3.06
2019-04-14T07:09:20.991Z,3.04
2019-04-14T07:11:50.468Z,3.07
2019-04-14T07:14:19.739Z,3.22
2019-04-14T07:16:51.406Z,3.23
2019-04-14T07:19:20.293Z,3.14
2019-04-14T07:21:49.572Z,3.08
2019-04-14T07:24:18.915Z,3.03
2019-04-14T07:26:48.223Z,3.35
2019-04-14T07:29:17.481Z,3.35
2019-04-14T07:31:49.616Z,3.45
2019-04-14T07:34:22.989Z,3.41
2019-04-14T07:36:59.666Z,3.46
2019-04-14T07:39:33.446Z,3.41
2019-04-14T07:42:07.338Z,3.64
2019-04-14T07:44:51.044Z,3.75
2019-04-14T07:47:22.006Z,3.73
2019-04-14T07:49:55.920Z,3.79
2019-04-14T07:52:29.880Z,3.69
2019-04-14T07:55:06.794Z,3.69
2019-04-14T07:57:46.924Z,3.70
2019-04-14T08:00:34.392Z,3.63
2019-04-14T08:03:08.549Z,3.44
2019-04-14T08:05:41.516Z,3.50
2019-04-14T08:08:11.949Z,3.56
2019-04-14T08:10:41.321Z,3.76
2019-04-14T08:13:11.034Z,3.70
2019-04-14T08:15:40.591Z,3.87
2019-04-14T08:18:09.972Z,3.77
2019-04-14T08:20:39.243Z,3.98
2019-04-14T08:23:08.689Z,3.83
2019-04-14T08:25:37.944Z,4.13
2019-04-14T08:28:07.345Z,4.11
2019-04-14T08:30:36.796Z,4.04
2019-04-14T08:33:06.208Z,4.09
2019-04-14T08:35:36.380Z,4.43
2019-04-14T08:38:05.834Z,4.56
2019-04-14T08:40:38.412Z,4.30
2019-04-14T08:43:23.140Z,4.44
2019-04-14T08:46:03.226Z,4.02
2019-04-14T08:48:49.001Z,4.24
2019-04-14T08:51:22.628Z,4.53
2019-04-14T08:53:53.706Z,4.82
2019-04-14T08:56:30.532Z,5.05
2019-04-14T08:59:01.476Z,5.36
2019-04-14T09:01:44.281Z,5.11
2019-04-14T09:04:31.188Z,4.99
2019-04-14T09:07:14.950Z,5.29
2019-04-14T09:09:50.365Z,5.84
2019-04-14T09:12:21.347Z,5.64
2019-04-14T09:14:56.872Z,5.62
2019-04-14T09:17:21.742Z,5.69
2019-04-14T09:19:51.117Z,5.89
2019-04-14T09:22:20.497Z,6.96
2019-04-14T09:24:49.853Z,6.89
2019-04-14T09:27:19.374Z,7.35
2019-04-14T09:29:48.727Z,7.37
2019-04-14T09:32:19.823Z,7.41
2019-04-14T09:34:49.264Z,7.80
2019-04-14T09:37:18.735Z,8.84
2019-04-14T09:39:48.031Z,9.58
2019-04-14T09:42:17.336Z,10.35
2019-04-14T09:44:48.297Z,11.93
2019-04-14T09:47:17.774Z,12.24
2019-04-14T09:49:47.234Z,12.08
2019-04-14T09:52:16.659Z,9.58
2019-04-14T09:54:46.019Z,9.72
2019-04-14T09:57:15.320Z,9.45
2019-04-14T09:59:44.679Z,9.21
2019-04-14T10:02:15.786Z,9.57
2019-04-14T10:04:45.087Z,9.38
2019-04-14T10:07:14.382Z,9.97
2019-04-14T10:09:43.818Z,12.12
2019-04-14T10:12:13.174Z,13.07
2019-04-14T10:14:42.452Z,13.54
2019-04-14T10:17:11.828Z,14.39
2019-04-14T10:19:41.123Z,12.72
2019-04-14T10:22:10.512Z,11.59
2019-04-14T10:24:39.846Z,11.27
2019-04-14T10:27:09.132Z,12.38
2019-04-14T10:29:38.454Z,11.70
2019-04-14T10:32:07.831Z,12.55
2019-04-14T10:34:37.341Z,14.35
2019-04-14T10:37:06.834Z,13.84
2019-04-14T10:39:36.212Z,13.68
2019-04-14T10:42:05.669Z,13.99
2019-04-14T10:44:36.524Z,14.40
2019-04-14T10:47:07.316Z,13.40
2019-04-14T10:49:36.927Z,14.41
2019-04-14T10:52:06.243Z,15.52
2019-04-14T10:54:35.692Z,15.80
2019-04-14T10:57:05.083Z,16.26
2019-04-14T10:59:34.502Z,14.88
2019-04-14T11:02:03.947Z,16.06
2019-04-14T11:04:33.239Z,16.03
2019-04-14T11:07:04.254Z,15.28
2019-04-14T11:09:33.486Z,14.92
2019-04-14T11:12:03.203Z,12.34
2019-04-14T11:14:32.510Z,12.32
2019-04-14T11:17:01.841Z,12.78
2019-04-14T11:19:31.206Z,14.01
2019-04-14T11:22:00.578Z,14.69
2019-04-14T11:24:31.429Z,15.60
2019-04-14T11:27:00.909Z,13.96
2019-04-14T11:29:30.269Z,13.99
2019-04-14T11:32:17.311Z,14.23
2019-04-14T11:35:04.488Z,12.67
2019-04-14T11:37:50.659Z,14.50
2019-04-14T11:40:21.674Z,15.19
2019-04-14T11:42:52.554Z,15.86
2019-04-14T11:45:22.406Z,14.95
2019-04-14T11:47:51.744Z,15.30
2019-04-14T11:50:21.457Z,15.13
2019-04-14T11:52:50.823Z,15.44
2019-04-14T11:55:20.232Z,14.66
2019-04-14T11:57:49.570Z,16.41
2019-04-14T12:00:35.555Z,16.14
2019-04-14T12:03:18.891Z,16.40
2019-04-14T12:05:58.883Z,16.30
2019-04-14T12:08:29.813Z,15.98
2019-04-14T12:10:59.405Z,15.75
2019-04-14T12:13:30.447Z,17.20
2019-04-14T12:15:59.759Z,17.68
2019-04-14T12:18:29.341Z,16.12
2019-04-14T12:20:58.651Z,14.46
2019-04-14T12:23:28.127Z,15.65
2019-04-14T12:26:05.309Z,15.47
2019-04-14T12:28:28.569Z,16.46
2019-04-14T12:30:58.031Z,16.80
2019-04-14T12:33:28.673Z,17.68
2019-04-14T12:36:00.946Z,15.08
2019-04-14T12:38:30.398Z,14.80
2019-04-14T12:41:02.409Z,15.63
2019-04-14T12:43:45.745Z,15.75
2019-04-14T12:46:16.755Z,14.36
2019-04-14T12:48:47.680Z,14.95
2019-04-14T12:51:21.100Z,15.26
2019-04-14T12:53:50.529Z,15.33
2019-04-14T12:56:21.581Z,15.25
2019-04-14T12:59:01.904Z,15.99
2019-04-14T13:01:35.744Z,16.22
2019-04-14T13:04:05.727Z,15.99
2019-04-14T13:06:35.265Z,16.46
2019-04-14T13:09:06.307Z,15.58
2019-04-14T13:11:37.157Z,15.98
2019-04-14T13:14:06.501Z,16.30
2019-04-14T13:16:36.744Z,15.90
2019-04-14T13:19:06.096Z,15.60
2019-04-14T13:21:35.522Z,15.11
2019-04-14T13:24:05.294Z,16.15
2019-04-14T13:26:34.585Z,15.64
2019-04-14T13:29:04.068Z,16.14
2019-04-14T13:31:33.369Z,15.67
2019-04-14T13:34:02.691Z,15.78
2019-04-14T13:36:32.046Z,16.45
2019-04-14T13:39:01.892Z,16.47
2019-04-14T13:41:32.825Z,16.30
2019-04-14T13:44:02.225Z,16.32
2019-04-14T13:46:31.505Z,16.26
2019-04-14T13:49:00.801Z,16.29
2019-04-14T13:51:30.080Z,15.66
2019-04-14T13:54:00.468Z,16.62
2019-04-14T13:56:29.819Z,16.86
2019-04-14T13:58:59.834Z,16.84
2019-04-14T14:01:29.210Z,16.59
2019-04-14T14:03:58.560Z,16.54
2019-04-14T14:06:27.922Z,17.27
2019-04-14T14:08:57.344Z,17.70
2019-04-14T14:11:44.315Z,16.70
2019-04-14T14:14:32.970Z,16.74
2019-04-14T14:17:07.221Z,16.31
2019-04-14T14:19:55.208Z,15.59
2019-04-14T14:22:33.733Z,15.57
2019-04-14T14:25:12.892Z,15.35
2019-04-14T14:27:42.273Z,15.78
2019-04-14T14:30:13.680Z,15.82
2019-04-14T14:32:44.170Z,16.24
2019-04-14T14:35:13.553Z,15.94
2019-04-14T14:37:43.066Z,15.63
2019-04-14T14:40:12.815Z,15.52
2019-04-14T14:42:42.124Z,15.14
2019-04-14T14:45:29.967Z,15.54
2019-04-14T14:48:01.132Z,14.84
2019-04-14T14:50:33.854Z,14.82
2019-04-14T14:53:12.121Z,15.33
2019-04-14T14:55:33.468Z,15.34
2019-04-14T14:58:03.042Z,16.41
2019-04-14T15:00:33.619Z,16.57
2019-04-14T15:03:03.380Z,15.98
2019-04-14T15:05:32.676Z,15.96
2019-04-14T15:08:03.680Z,15.96
2019-04-14T15:10:33.020Z,15.89
2019-04-14T15:13:02.381Z,15.69
2019-04-14T15:15:31.741Z,15.61
2019-04-14T15:18:01.142Z,15.45
2019-04-14T15:20:30.817Z,15.76
2019-04-14T15:23:00.097Z,15.33
2019-04-14T15:25:29.535Z,15.90
2019-04-14T15:27:58.896Z,15.74
2019-04-14T15:30:29.525Z,14.89
2019-04-14T15:32:58.963Z,15.82
2019-04-14T15:35:28.309Z,16.01
2019-04-14T15:37:59.263Z,15.39
2019-04-14T15:40:28.620Z,15.38
2019-04-14T15:42:57.953Z,15.46
2019-04-14T15:45:27.357Z,14.93
2019-04-14T15:47:58.475Z,15.56
2019-04-14T15:50:27.870Z,15.14
2019-04-14T15:52:57.793Z,14.85
2019-04-14T15:55:28.711Z,14.58
2019-04-14T15:58:17.833Z,14.96
2019-04-14T16:01:05.063Z,15.13
2019-04-14T16:03:39.010Z,14.33
2019-04-14T16:06:16.208Z,14.59
2019-04-14T16:09:02.631Z,14.82
2019-04-14T16:11:39.995Z,15.09
2019-04-14T16:14:10.715Z,14.73
2019-04-14T16:16:41.783Z,14.88
2019-04-14T16:19:30.941Z,14.17
2019-04-14T16:22:00.331Z,14.68
2019-04-14T16:24:32.616Z,14.05
2019-04-14T16:27:20.226Z,14.41
2019-04-14T16:30:07.630Z,14.01
2019-04-14T16:32:48.207Z,13.91
2019-04-14T16:35:26.092Z,13.49
2019-04-14T16:37:55.473Z,13.61
2019-04-14T16:40:25.893Z,14.11
2019-04-14T16:42:55.296Z,14.27
2019-04-14T16:45:24.788Z,14.47
2019-04-14T16:47:54.322Z,14.46
2019-04-14T16:50:23.824Z,13.78
2019-04-14T16:52:57.757Z,13.29
2019-04-14T16:55:37.866Z,13.02
2019-04-14T16:58:20.885Z,12.35
2019-04-14T17:00:54.258Z,11.70
2019-04-14T17:03:24.103Z,11.42
2019-04-14T17:05:53.599Z,11.21
2019-04-14T17:08:23.046Z,11.23
2019-04-14T17:10:52.310Z,10.94
2019-04-14T17:13:22.963Z,10.77
2019-04-14T17:15:59.854Z,10.45
2019-04-14T17:18:33.612Z,10.50
2019-04-14T17:21:04.665Z,10.50
2019-04-14T17:23:41.673Z,10.27
2019-04-14T17:26:30.914Z,10.26
2019-04-14T17:29:04.990Z,10.22
2019-04-14T17:31:52.622Z,10.10
2019-04-14T17:34:23.710Z,9.98
2019-04-14T17:36:54.668Z,9.88
2019-04-14T17:39:31.621Z,9.77
2019-04-14T17:42:05.889Z,9.62
2019-04-14T17:44:42.639Z,9.53
2019-04-14T17:47:16.030Z,9.34
2019-04-14T17:49:47.211Z,9.23
2019-04-14T17:52:30.350Z,9.09
2019-04-14T17:55:16.650Z,8.95
2019-04-14T17:57:53.949Z,8.85
2019-04-14T18:00:33.854Z,8.83
2019-04-14T18:03:21.479Z,8.64
2019-04-14T18:05:58.802Z,8.50
2019-04-14T18:08:29.810Z,8.41
2019-04-14T18:11:17.566Z,8.26
2019-04-14T18:13:51.418Z,8.12
2019-04-14T18:16:22.733Z,7.88
2019-04-14T18:18:56.412Z,7.71
2019-04-14T18:21:25.769Z,7.60
2019-04-14T18:23:55.205Z,7.47
2019-04-14T18:26:24.754Z,7.39
2019-04-14T18:28:55.707Z,7.25
2019-04-14T18:31:29.543Z,7.23
2019-04-14T18:34:12.258Z,7.22
2019-04-14T18:36:42.088Z,7.22
2019-04-14T18:39:13.099Z,7.22
2019-04-14T18:41:50.043Z,7.16
2019-04-14T18:44:39.454Z,6.99
2019-04-14T18:47:28.387Z,6.92
2019-04-14T18:50:05.376Z,6.67
2019-04-14T18:52:38.993Z,6.54
2019-04-14T18:55:12.696Z,6.48
2019-04-14T18:57:43.680Z,6.39
2019-04-14T19:00:24.153Z,6.25
2019-04-14T19:02:53.792Z,6.11
2019-04-14T19:05:24.181Z,5.95
2019-04-14T19:07:54.012Z,5.86
2019-04-14T19:10:23.808Z,5.76
2019-04-14T19:12:54.772Z,5.78
2019-04-14T19:15:31.565Z,5.73
2019-04-14T19:18:18.660Z,5.70
2019-04-14T19:20:49.772Z,5.60
2019-04-14T19:23:19.383Z,5.58
2019-04-14T19:25:48.684Z,5.64
2019-04-14T19:28:18.033Z,5.64
2019-04-14T19:30:47.435Z,5.73
2019-04-14T19:33:16.751Z,5.97
2019-04-14T19:35:47.543Z,6.15
2019-04-14T19:38:16.908Z,6.25
2019-04-14T19:40:46.206Z,6.21
2019-04-14T19:43:23.549Z,6.19
2019-04-14T19:45:46.662Z,6.06
2019-04-14T19:48:15.929Z,5.95
2019-04-14T19:50:46.296Z,6.00
2019-04-14T19:53:15.615Z,6.09
2019-04-14T19:55:45.173Z,6.02
2019-04-14T19:58:14.554Z,5.90
2019-04-14T20:00:43.930Z,5.90
2019-04-14T20:03:13.276Z,5.74
2019-04-14T20:05:42.858Z,5.59
2019-04-14T20:08:12.235Z,5.65
2019-04-14T20:10:41.611Z,5.74
2019-04-14T20:13:11.368Z,5.72
2019-04-14T20:15:58.854Z,5.79
2019-04-14T20:18:46.318Z,5.73
2019-04-14T20:21:33.446Z,5.73
2019-04-14T20:24:13.037Z,5.78
2019-04-14T20:26:53.223Z,5.74
2019-04-14T20:29:24.240Z,5.79
2019-04-14T20:31:55.152Z,5.82
2019-04-14T20:34:24.453Z,5.81
2019-04-14T20:36:55.523Z,5.78
2019-04-14T20:39:25.146Z,5.72
2019-04-14T20:41:54.605Z,5.71
2019-04-14T20:44:24.011Z,5.76
2019-04-14T20:46:53.267Z,5.76
2019-04-14T20:49:22.583Z,5.78
2019-04-14T20:51:51.847Z,5.80
2019-04-14T20:54:21.185Z,5.78
2019-04-14T20:56:50.529Z,5.74
2019-04-14T20:59:20.023Z,5.63
2019-04-14T21:01:57.880Z,5.62
2019-04-14T21:04:32.918Z,5.62
2019-04-14T21:07:03.835Z,5.65
2019-04-14T21:09:34.841Z,5.57
2019-04-14T21:12:11.692Z,5.45
2019-04-14T21:14:48.642Z,5.39
2019-04-14T21:17:27.051Z,5.30
2019-04-14T21:20:12.984Z,5.31
2019-04-14T21:22:56.415Z,5.27
2019-04-14T21:25:33.434Z,5.26
2019-04-14T21:28:22.526Z,5.34
2019-04-14T21:30:53.447Z,5.29
2019-04-14T21:33:30.222Z,5.29
2019-04-14T21:36:17.495Z,5.21
2019-04-14T21:38:51.405Z,5.12
2019-04-14T21:41:25.349Z,5.01
2019-04-14T21:43:54.632Z,4.91
2019-04-14T21:46:23.933Z,4.88
2019-04-14T21:48:53.218Z,4.88
2019-04-14T21:51:24.177Z,4.89
2019-04-14T21:53:53.540Z,4.84
2019-04-14T21:56:24.485Z,4.77
2019-04-14T21:58:57.073Z,4.70
2019-04-14T22:01:52.220Z,4.71
2019-04-14T22:04:23.237Z,4.71
2019-04-14T22:06:57.206Z,4.63
2019-04-14T22:09:29.022Z,4.52
2019-04-14T22:11:59.572Z,4.47
2019-04-14T22:14:28.954Z,4.37
2019-04-14T22:16:58.376Z,4.22
2019-04-14T22:19:27.749Z,4.19
2019-04-14T22:21:57.027Z,4.01
2019-04-14T22:24:26.842Z,3.91
2019-04-14T22:26:56.356Z,3.84
2019-04-14T22:29:25.656Z,3.90
2019-04-14T22:31:54.935Z,3.82
2019-04-14T22:34:24.234Z,3.87
2019-04-14T22:36:53.516Z,3.87
2019-04-14T22:39:23.012Z,3.66
2019-04-14T22:41:52.432Z,3.51
2019-04-14T22:44:23.461Z,3.57
2019-04-14T22:46:52.863Z,3.53
2019-04-14T22:49:22.233Z,3.68
2019-04-14T22:51:51.510Z,3.74
2019-04-14T22:54:20.833Z,3.85
2019-04-14T22:56:50.119Z,3.68
2019-04-14T22:59:19.429Z,3.68
2019-04-14T23:01:50.409Z,3.63
2019-04-14T23:04:36.374Z,3.57
2019-04-14T23:07:25.605Z,3.36
2019-04-14T23:10:11.851Z,3.30
2019-04-14T23:12:58.977Z,3.30
2019-04-14T23:15:35.855Z,3.28
2019-04-14T23:18:09.876Z,3.35
2019-04-14T23:20:41.009Z,3.37
2019-04-14T23:23:20.783Z,3.37
2019-04-14T23:25:51.382Z,3.20
2019-04-14T23:28:20.718Z,2.98
2019-04-14T23:30:50.084Z,2.92
2019-04-14T23:33:19.431Z,3.12
2019-04-14T23:35:48.811Z,3.12
2019-04-14T23:38:18.152Z,3.12
2019-04-14T23:40:49.073Z,3.23
2019-04-14T23:43:18.437Z,3.24
2019-04-14T23:45:47.735Z,3.30
2019-04-14T23:48:17.013Z,3.47
2019-04-14T23:50:46.373Z,3.33
2019-04-14T23:53:15.762Z,3.32
2019-04-14T23:55:45.098Z,3.35
2019-04-14T23:58:14.629Z,3.34
